Port O'Connor, TX (77982)

4:42 PM CDT on August 03, 2015 (GMT -0500)
BB Upholstery | | Change Station
CLOSE
Current Station
Personal Weather Station
Location: Port O'Connor, TX
Elevation: 30 ft
Nearby Weather Stations

Elev 30 ft 28.44 °N, 96.43 °W | Updated 10 seconds ago

Clear
Clear
88.9 °F
Feels Like 102 °F
N
6.0
Wind Variable Wind from SW
Gusts 13.0 mph

Today
High -- | Low -- °F
--% Chance of Precip.
Yesterday
High -- | Low -- °F
Precip. -- in
6:49 AM 8:15 PM
Waning Gibbous, 84% visible
Pressure 29.87 in
Visibility 10.0 miles
Clouds Scattered Clouds 100 ft
Heat Index 102 °F
Dew Point 77 °F
Humidity 68%
Rainfall 0.00 in
Snow Depth Not available.
UV 5 out of 12
Pollen 4.20 out of 12
Air Quality Not available.
Flu Activity Not available.
METAR KPKV 032135Z AUTO 14009G16KT 10SM SCT001 33/22 A2987 RMK AO2 T03330219

More Conditions Fewer Conditions

Pressure 29.87 in
Visibility 10.0 miles
Clouds Scattered Clouds 100 ft
Heat Index 102 °F
Dew Point 77 °F
Humidity 68%
Rainfall 0.00 in
Snow Depth Not available.
UV 5 out of 12
Pollen 4.20 out of 12
Air Quality Not available.
Flu Activity Not available.
METAR KPKV 032135Z AUTO 14009G16KT 10SM SCT001 33/22 A2987 RMK AO2 T03330219

More Conditions Fewer Conditions

Nowcast | as of 3:22 PM CDT on August 3, 2015

Isolated showers and thunderstorms will continue to affect the coastal Bend and the coastal plains this afternoon. Through 5 PM CDT...rainfall will generally be less than a quarter of an inch. However...slow moving or stationary thunderstorms could easily produce well over an inch of measurable precipitation.

×

10-Day Weather Forecast

×

Almanac

Astronomy

Aug. 03, 2015 Rise Set
Actual Time
Civil Twilight
Nautical Twilight
Astronomical Twilight
Moon
Length of Visible Light
Length of Day
Tomorrow will be .
, % of the Moon is Illuminated

Today's Extremes

State Highs State Lows

Community

WunderPhotos

Upload Photos

1,843,770 photos uploaded!

WunderBlogs® & News

Nearby

Air Quality

  Air Quality AQ Index Pollutant
Not available.

Snow Depth

Station Depth Elevation

Earthquake Activity

City Distance Mag. Time & Date
Minimum magnitude displayed is 2.5.

Coastal Water Temperatures

Place Temperature

Stations

Nearby Weather Stations

Station Location Temp. Windchill Dew Point Humidity Wind Precip. Elev Updated Type